createdAt,value
2023-03-27T00:01:13.470Z,65.36
2023-03-27T00:03:40.795Z,65.05
2023-03-27T00:06:09.396Z,65.44
2023-03-27T00:08:39.509Z,65.01
2023-03-27T00:11:08.248Z,65.41
2023-03-27T00:13:35.370Z,65.26
2023-03-27T00:16:02.890Z,65.17
2023-03-27T00:18:29.812Z,65.27
2023-03-27T00:21:00.952Z,64.84
2023-03-27T00:23:31.002Z,65.78
2023-03-27T00:25:57.987Z,65.28
2023-03-27T00:28:27.260Z,65.42
2023-03-27T00:30:56.431Z,65.43
2023-03-27T00:33:23.843Z,65.91
2023-03-27T00:35:51.174Z,66.32
2023-03-27T00:38:18.516Z,65.91
2023-03-27T00:40:46.756Z,65.76
2023-03-27T00:43:23.947Z,66.22
2023-03-27T00:45:52.729Z,65.87
2023-03-27T00:48:20.756Z,65.70
2023-03-27T00:50:49.807Z,65.90
2023-03-27T00:53:17.988Z,65.83
2023-03-27T00:55:48.378Z,65.81
2023-03-27T00:58:17.819Z,65.70
2023-03-27T01:00:44.583Z,65.70
2023-03-27T01:03:11.402Z,65.78
2023-03-27T01:05:38.472Z,65.46
2023-03-27T01:08:05.354Z,65.29
2023-03-27T01:10:47.119Z,65.55
2023-03-27T01:13:24.405Z,65.43
2023-03-27T01:15:57.430Z,64.99
2023-03-27T01:18:42.046Z,65.05
2023-03-27T01:21:08.629Z,64.67
2023-03-27T01:23:59.661Z,64.67
2023-03-27T01:26:49.693Z,64.77
2023-03-27T01:29:42.596Z,64.13
2023-03-27T01:32:19.561Z,64.27
2023-03-27T01:35:02.023Z,63.98
2023-03-27T01:37:50.374Z,64.03
2023-03-27T01:40:20.047Z,63.79
2023-03-27T01:42:49.594Z,63.46
2023-03-27T01:45:19.293Z,63.37
2023-03-27T01:47:57.989Z,62.88
2023-03-27T01:50:30.764Z,63.05
2023-03-27T01:53:03.904Z,62.88
2023-03-27T01:55:34.454Z,63.06
2023-03-27T01:58:05.149Z,62.88
2023-03-27T02:00:51.370Z,63.32
2023-03-27T02:03:27.028Z,63.47
2023-03-27T02:05:58.659Z,63.35
2023-03-27T02:08:41.352Z,63.26
2023-03-27T02:11:17.427Z,63.69
2023-03-27T02:13:47.499Z,63.48
2023-03-27T02:16:19.418Z,63.35
2023-03-27T02:18:59.052Z,62.87
2023-03-27T02:21:25.837Z,62.95
2023-03-27T02:23:53.095Z,63.15
2023-03-27T02:26:20.072Z,63.62
2023-03-27T02:29:05.519Z,64.04
2023-03-27T02:31:40.721Z,63.83
2023-03-27T02:34:08.626Z,64.45
2023-03-27T02:36:36.134Z,64.80
2023-03-27T02:39:05.684Z,65.38
2023-03-27T02:41:42.781Z,65.68
2023-03-27T02:44:31.221Z,66.03
2023-03-27T02:47:20.390Z,66.12
2023-03-27T02:49:51.319Z,66.90
2023-03-27T02:52:26.736Z,66.64
2023-03-27T02:55:06.184Z,67.29
2023-03-27T02:57:40.373Z,67.24
2023-03-27T03:00:36.278Z,67.45
2023-03-27T03:03:30.546Z,67.22
2023-03-27T03:06:07.436Z,67.30
2023-03-27T03:08:38.717Z,67.60
2023-03-27T03:11:10.780Z,67.77
2023-03-27T03:13:37.475Z,67.97
2023-03-27T03:16:05.041Z,68.02
2023-03-27T03:18:31.654Z,68.68
2023-03-27T03:20:58.825Z,68.50
2023-03-27T03:23:25.693Z,68.76
2023-03-27T03:25:56.836Z,69.47
2023-03-27T03:28:27.061Z,69.35
2023-03-27T03:30:54.355Z,69.79
2023-03-27T03:33:21.980Z,69.91
2023-03-27T03:35:49.989Z,70.14
2023-03-27T03:38:29.992Z,70.17
2023-03-27T03:41:06.960Z,70.58
2023-03-27T03:43:34.317Z,70.84
2023-03-27T03:46:01.191Z,71.51
2023-03-27T03:48:27.896Z,71.19
2023-03-27T03:50:54.862Z,71.60
2023-03-27T03:53:22.530Z,71.56
2023-03-27T03:55:50.689Z,72.39
2023-03-27T03:58:17.373Z,71.99
2023-03-27T04:00:44.659Z,72.20
2023-03-27T04:03:32.356Z,72.34
2023-03-27T04:06:05.352Z,72.32
2023-03-27T04:08:33.039Z,72.27
2023-03-27T04:11:02.462Z,72.17
2023-03-27T04:13:47.692Z,72.30
2023-03-27T04:16:25.007Z,72.69
2023-03-27T04:18:54.744Z,72.67
2023-03-27T04:21:26.831Z,72.97
2023-03-27T04:23:53.944Z,72.91
2023-03-27T04:26:29.749Z,72.46
2023-03-27T04:29:31.962Z,72.19
2023-03-27T04:31:59.105Z,72.49
2023-03-27T04:34:41.020Z,72.04
2023-03-27T04:37:15.733Z,71.64
2023-03-27T04:39:54.907Z,72.01
2023-03-27T04:42:23.556Z,71.11
2023-03-27T04:44:52.500Z,70.57
2023-03-27T04:47:20.459Z,70.71
2023-03-27T04:49:51.206Z,70.66
2023-03-27T04:52:22.238Z,70.36
2023-03-27T04:54:49.273Z,70.75
2023-03-27T04:57:19.220Z,70.77
2023-03-27T04:59:48.658Z,70.64
2023-03-27T05:02:34.519Z,70.25
2023-03-27T05:05:14.079Z,69.37
2023-03-27T05:07:44.415Z,69.58
2023-03-27T05:10:17.446Z,68.83
2023-03-27T05:12:50.487Z,69.47
2023-03-27T05:15:18.191Z,68.83
2023-03-27T05:17:47.089Z,68.68
2023-03-27T05:20:17.026Z,69.08
2023-03-27T05:22:44.178Z,68.84
2023-03-27T05:25:28.019Z,68.87
2023-03-27T05:27:56.009Z,68.58
2023-03-27T05:30:26.991Z,68.47
2023-03-27T05:33:16.554Z,68.42
2023-03-27T05:35:46.875Z,68.34
2023-03-27T05:38:14.355Z,68.39
2023-03-27T05:41:00.678Z,68.47
2023-03-27T05:43:28.972Z,68.14
2023-03-27T05:45:55.691Z,67.91
2023-03-27T05:48:22.424Z,67.86
2023-03-27T05:50:49.071Z,68.42
2023-03-27T05:53:20.447Z,68.08
2023-03-27T05:56:30.783Z,68.26
2023-03-27T05:58:59.985Z,67.68
2023-03-27T06:01:28.060Z,67.77
2023-03-27T06:03:57.430Z,67.59
2023-03-27T06:06:28.538Z,67.63
2023-03-27T06:08:59.420Z,67.64
2023-03-27T06:11:27.902Z,67.39
2023-03-27T06:13:55.313Z,67.60
2023-03-27T06:16:30.663Z,67.22
2023-03-27T06:19:10.189Z,67.11
2023-03-27T06:21:44.733Z,67.33
2023-03-27T06:24:11.574Z,66.95
2023-03-27T06:26:39.341Z,66.76
2023-03-27T06:29:08.082Z,66.85
2023-03-27T06:31:38.978Z,66.41
2023-03-27T06:34:15.075Z,66.56
2023-03-27T06:36:54.397Z,66.19
2023-03-27T06:39:21.635Z,65.86
2023-03-27T06:41:51.425Z,65.64
2023-03-27T06:44:26.472Z,65.58
2023-03-27T06:47:01.802Z,65.82
2023-03-27T06:49:48.810Z,66.02
2023-03-27T06:52:20.987Z,65.12
2023-03-27T06:54:47.744Z,65.28
2023-03-27T06:57:15.421Z,65.41
2023-03-27T06:59:49.937Z,65.36
2023-03-27T07:02:21.389Z,64.93
2023-03-27T07:05:08.331Z,65.04
2023-03-27T07:07:41.578Z,63.92
2023-03-27T07:10:10.836Z,64.56
2023-03-27T07:12:40.229Z,64.75
2023-03-27T07:15:08.046Z,63.64
2023-03-27T07:17:48.100Z,63.24
2023-03-27T07:20:15.738Z,63.31
2023-03-27T07:22:45.424Z,63.27
2023-03-27T07:25:24.663Z,62.47
2023-03-27T07:27:51.350Z,62.72
2023-03-27T07:30:18.373Z,62.75
2023-03-27T07:32:45.343Z,62.51
2023-03-27T07:35:12.839Z,62.46
2023-03-27T07:37:58.456Z,62.20
2023-03-27T07:40:39.857Z,62.55
2023-03-27T07:43:27.863Z,62.75
2023-03-27T07:45:55.331Z,62.15
2023-03-27T07:48:22.220Z,62.13
2023-03-27T07:50:48.949Z,62.31
2023-03-27T07:53:33.269Z,62.08
2023-03-27T07:56:15.830Z,62.27
2023-03-27T07:58:46.066Z,62.14
2023-03-27T08:01:17.738Z,61.97
2023-03-27T08:03:47.432Z,62.08
2023-03-27T08:06:15.691Z,61.60
2023-03-27T08:08:42.430Z,62.15
2023-03-27T08:11:19.509Z,61.56
2023-03-27T08:13:54.561Z,61.94
2023-03-27T08:16:21.692Z,61.43
2023-03-27T08:18:49.729Z,61.08
2023-03-27T08:21:16.597Z,61.41
2023-03-27T08:23:44.758Z,60.89
2023-03-27T08:26:40.226Z,60.97
2023-03-27T08:29:10.958Z,60.51
2023-03-27T08:31:37.767Z,60.10
2023-03-27T08:34:05.715Z,60.26
2023-03-27T08:36:58.658Z,60.11
2023-03-27T08:39:34.957Z,60.27
2023-03-27T08:42:05.829Z,60.48
2023-03-27T08:44:35.581Z,60.42
2023-03-27T08:47:15.677Z,60.21
2023-03-27T08:49:50.910Z,60.07
2023-03-27T08:52:24.842Z,59.64
2023-03-27T08:54:58.521Z,59.71
2023-03-27T08:57:35.047Z,60.13
2023-03-27T09:00:34.198Z,60.71
2023-03-27T09:03:32.987Z,61.74
2023-03-27T09:06:07.603Z,61.74
2023-03-27T09:09:04.860Z,62.52
2023-03-27T09:11:56.655Z,63.16
2023-03-27T09:14:34.753Z,63.32
2023-03-27T09:17:07.041Z,63.51
2023-03-27T09:19:40.633Z,63.15
2023-03-27T09:22:10.442Z,63.50
2023-03-27T09:25:03.868Z,63.59
2023-03-27T09:27:52.434Z,65.22
2023-03-27T09:30:31.858Z,69.40
2023-03-27T09:33:06.000Z,75.39
2023-03-27T09:35:35.608Z,80.45
2023-03-27T09:38:04.107Z,79.81
2023-03-27T09:40:43.541Z,78.22
2023-03-27T09:43:19.565Z,75.07
2023-03-27T09:45:48.793Z,76.22
2023-03-27T09:48:22.638Z,75.43
2023-03-27T09:50:49.490Z,75.06
2023-03-27T09:53:30.388Z,73.71
2023-03-27T09:56:06.292Z,73.34
2023-03-27T09:58:40.879Z,73.08
2023-03-27T10:01:14.107Z,72.83
2023-03-27T10:04:01.888Z,71.81
2023-03-27T10:06:38.904Z,71.96
2023-03-27T10:09:29.663Z,72.57
2023-03-27T10:12:07.944Z,71.81
2023-03-27T10:14:40.919Z,73.64
2023-03-27T10:17:14.602Z,73.75
2023-03-27T10:19:42.288Z,73.70
2023-03-27T10:22:18.131Z,73.06
2023-03-27T10:24:46.678Z,73.48
2023-03-27T10:27:23.461Z,73.99
2023-03-27T10:30:36.497Z,74.35
2023-03-27T10:33:30.828Z,73.06
2023-03-27T10:36:11.951Z,74.63
2023-03-27T10:38:40.894Z,74.32
2023-03-27T10:41:28.475Z,74.97
2023-03-27T10:43:58.075Z,75.25
2023-03-27T10:46:29.187Z,74.97
2023-03-27T10:49:10.231Z,73.95
2023-03-27T10:51:49.033Z,74.28
2023-03-27T10:54:28.626Z,73.69
2023-03-27T10:57:10.359Z,73.73
2023-03-27T10:59:53.849Z,73.60
2023-03-27T11:02:31.723Z,73.88
2023-03-27T11:05:03.027Z,74.05
2023-03-27T11:07:33.991Z,73.79
2023-03-27T11:10:10.223Z,74.39
2023-03-27T11:12:38.047Z,74.12
2023-03-27T11:15:15.467Z,74.46
2023-03-27T11:17:46.533Z,74.57
2023-03-27T11:20:37.843Z,73.99
2023-03-27T11:23:39.655Z,73.08
2023-03-27T11:26:23.217Z,73.05
2023-03-27T11:28:55.241Z,73.09
2023-03-27T11:31:34.320Z,72.05
2023-03-27T11:34:07.317Z,72.43
2023-03-27T11:36:51.373Z,72.03
2023-03-27T11:39:38.822Z,71.30
2023-03-27T11:42:14.229Z,71.85
2023-03-27T11:44:42.002Z,71.56
2023-03-27T11:47:34.974Z,72.49
2023-03-27T11:50:12.333Z,73.04
2023-03-27T11:52:40.997Z,75.01
2023-03-27T11:55:20.670Z,75.26
2023-03-27T11:57:57.443Z,74.04
2023-03-27T12:00:36.466Z,72.90
2023-03-27T12:03:18.532Z,72.29
2023-03-27T12:06:05.603Z,71.62
2023-03-27T12:08:40.648Z,71.27
2023-03-27T12:11:09.234Z,69.17
2023-03-27T12:14:01.772Z,69.55
2023-03-27T12:16:52.580Z,68.37
2023-03-27T12:22:24.865Z,69.38
2023-03-27T12:25:00.006Z,70.22
2023-03-27T12:28:04.222Z,69.92
2023-03-27T12:30:47.479Z,69.47
2023-03-27T12:33:17.986Z,70.13
2023-03-27T12:35:47.393Z,70.94
2023-03-27T12:38:17.678Z,73.08
2023-03-27T12:41:01.318Z,73.71
2023-03-27T12:43:41.357Z,74.83
2023-03-27T12:46:23.889Z,76.95
2023-03-27T12:48:54.606Z,77.08
2023-03-27T12:51:58.089Z,78.30
2023-03-27T12:55:03.894Z,78.68
2023-03-27T12:57:50.883Z,78.35
2023-03-27T13:00:28.805Z,78.29
2023-03-27T13:02:59.598Z,77.72
2023-03-27T13:05:31.963Z,77.42
2023-03-27T13:08:13.391Z,77.83
2023-03-27T13:11:18.682Z,76.26
2023-03-27T13:14:17.350Z,76.16
2023-03-27T13:16:56.307Z,74.68
2023-03-27T13:19:32.482Z,71.33
2023-03-27T13:22:26.115Z,70.17
2023-03-27T13:24:58.665Z,68.71
2023-03-27T13:27:47.763Z,68.46
2023-03-27T13:30:36.534Z,66.00
2023-03-27T13:33:10.010Z,63.43
2023-03-27T13:35:52.034Z,55.09
2023-03-27T13:38:39.898Z,52.79
2023-03-27T13:41:25.557Z,51.23
2023-03-27T13:43:53.358Z,50.26
2023-03-27T13:46:33.874Z,50.42
2023-03-27T13:49:14.381Z,50.33
2023-03-27T13:52:19.392Z,49.11
2023-03-27T13:55:04.911Z,49.07
2023-03-27T13:58:09.523Z,49.33
2023-03-27T14:00:48.945Z,48.42
2023-03-27T14:03:15.581Z,48.58
2023-03-27T14:06:06.079Z,47.74
2023-03-27T14:09:06.145Z,47.42
2023-03-27T14:12:01.102Z,47.38
2023-03-27T14:14:57.820Z,46.44
2023-03-27T14:17:24.495Z,46.89
2023-03-27T14:20:13.311Z,48.16
2023-03-27T14:22:48.449Z,46.18
2023-03-27T14:25:21.057Z,46.27
2023-03-27T14:27:55.029Z,46.63
2023-03-27T14:30:26.253Z,44.83
2023-03-27T14:33:24.108Z,43.81
2023-03-27T14:35:57.019Z,44.56
2023-03-27T14:38:25.674Z,43.42
2023-03-27T14:40:58.199Z,44.54
2023-03-27T14:43:45.738Z,44.39
2023-03-27T14:46:13.375Z,44.08
2023-03-27T14:48:42.561Z,44.11
2023-03-27T14:51:13.503Z,43.88
2023-03-27T14:53:45.488Z,44.15
2023-03-27T14:56:25.229Z,42.51
2023-03-27T14:58:59.549Z,43.27
2023-03-27T15:01:35.357Z,42.88
2023-03-27T15:04:03.154Z,42.75
2023-03-27T15:06:36.336Z,42.19
2023-03-27T15:09:12.277Z,43.25
2023-03-27T15:11:59.101Z,42.11
2023-03-27T15:14:29.497Z,41.00
2023-03-27T15:17:06.752Z,39.50
2023-03-27T15:19:57.411Z,41.16
2023-03-27T15:22:33.798Z,41.44
2023-03-27T15:25:08.750Z,42.03
2023-03-27T15:27:38.256Z,41.08
2023-03-27T15:30:05.092Z,39.95
2023-03-27T15:32:42.374Z,40.10
2023-03-27T15:35:13.830Z,40.07
2023-03-27T15:37:40.460Z,39.15
2023-03-27T15:40:22.555Z,40.11
2023-03-27T15:42:51.973Z,39.34
2023-03-27T15:45:21.526Z,40.24
2023-03-27T15:47:59.896Z,40.94
2023-03-27T15:50:29.671Z,40.11
2023-03-27T15:52:58.264Z,40.55
2023-03-27T15:55:33.388Z,41.27
2023-03-27T15:58:00.314Z,40.50
2023-03-27T16:00:28.838Z,41.44
2023-03-27T16:02:55.893Z,41.03
2023-03-27T16:05:22.968Z,41.24
2023-03-27T16:07:49.666Z,41.19
2023-03-27T16:10:30.837Z,40.52
2023-03-27T16:13:00.774Z,40.81
2023-03-27T16:15:29.433Z,41.55
2023-03-27T16:17:57.357Z,41.53
2023-03-27T16:20:23.958Z,40.41
2023-03-27T16:22:51.148Z,40.03
2023-03-27T16:25:17.838Z,40.80
2023-03-27T16:27:54.950Z,41.32
2023-03-27T16:30:36.169Z,42.02
2023-03-27T16:33:03.942Z,42.67
2023-03-27T16:35:33.911Z,43.35
2023-03-27T16:38:01.055Z,43.96
2023-03-27T16:40:28.361Z,44.70
2023-03-27T16:42:55.537Z,45.15
2023-03-27T16:45:22.386Z,45.17
2023-03-27T16:47:52.899Z,45.20
2023-03-27T16:50:21.909Z,46.03
2023-03-27T16:52:48.588Z,47.08
2023-03-27T16:55:15.479Z,47.36
2023-03-27T16:57:42.135Z,47.48
2023-03-27T17:00:09.751Z,48.07
2023-03-27T17:02:36.649Z,48.54
2023-03-27T17:05:04.762Z,48.47
2023-03-27T17:07:31.761Z,48.32
2023-03-27T17:09:58.350Z,47.96
2023-03-27T17:12:25.067Z,47.15
2023-03-27T17:14:52.550Z,47.11
2023-03-27T17:17:19.352Z,46.50
2023-03-27T17:19:45.994Z,46.02
2023-03-27T17:22:12.896Z,46.36
2023-03-27T17:24:53.350Z,46.23
2023-03-27T17:27:22.920Z,46.38
2023-03-27T17:29:51.227Z,46.15
2023-03-27T17:32:17.871Z,47.03
2023-03-27T17:34:44.455Z,47.61
2023-03-27T17:37:12.559Z,47.87
2023-03-27T17:39:39.527Z,48.58
2023-03-27T17:42:06.777Z,48.49
2023-03-27T17:44:33.490Z,48.72
2023-03-27T17:47:00.835Z,48.92
2023-03-27T17:49:29.692Z,48.88
2023-03-27T17:51:56.348Z,49.18
2023-03-27T17:54:23.039Z,49.49
2023-03-27T17:56:51.219Z,49.59
2023-03-27T17:59:17.946Z,49.24
2023-03-27T18:01:45.383Z,49.49
2023-03-27T18:04:12.252Z,49.38
2023-03-27T18:06:38.946Z,49.35
2023-03-27T18:09:07.434Z,49.53
2023-03-27T18:11:34.022Z,49.88
2023-03-27T18:14:01.028Z,50.07
2023-03-27T18:16:27.646Z,50.17
2023-03-27T18:18:55.758Z,50.30
2023-03-27T18:21:22.414Z,50.61
2023-03-27T18:23:49.424Z,50.43
2023-03-27T18:26:16.779Z,50.51
2023-03-27T18:28:43.532Z,50.25
2023-03-27T18:31:11.837Z,50.41
2023-03-27T18:33:38.498Z,51.08
2023-03-27T18:36:10.629Z,51.28
2023-03-27T18:38:39.937Z,51.28
2023-03-27T18:41:06.978Z,52.07
2023-03-27T18:43:33.912Z,51.79
2023-03-27T18:46:02.298Z,51.53
2023-03-27T18:48:31.125Z,51.38
2023-03-27T18:50:58.829Z,51.47
2023-03-27T18:53:25.983Z,51.45
2023-03-27T18:55:53.174Z,51.62
2023-03-27T18:58:20.266Z,51.46
2023-03-27T19:00:46.941Z,51.33
2023-03-27T19:03:20.237Z,51.58
2023-03-27T19:05:47.525Z,51.73
2023-03-27T19:08:14.991Z,52.33
2023-03-27T19:10:41.706Z,52.17
2023-03-27T19:13:20.926Z,52.04
2023-03-27T19:16:14.089Z,52.04
2023-03-27T19:19:11.187Z,52.20
2023-03-27T19:22:00.676Z,52.34
2023-03-27T19:24:47.588Z,52.41
2023-03-27T19:27:23.607Z,52.46
2023-03-27T19:29:51.815Z,52.41
2023-03-27T19:32:18.474Z,52.57
2023-03-27T19:34:45.090Z,52.94
2023-03-27T19:37:12.147Z,53.08
2023-03-27T19:39:38.884Z,53.35
2023-03-27T19:42:05.736Z,53.64
2023-03-27T19:44:35.552Z,54.00
2023-03-27T19:47:03.687Z,54.30
2023-03-27T19:49:30.565Z,54.69
2023-03-27T19:52:20.141Z,54.75
2023-03-27T19:54:47.145Z,54.98
2023-03-27T19:57:14.144Z,55.09
2023-03-27T19:59:40.971Z,55.42
2023-03-27T20:02:09.624Z,55.10
2023-03-27T20:04:36.189Z,55.46
2023-03-27T20:07:02.822Z,56.01
2023-03-27T20:09:29.501Z,56.14
2023-03-27T20:11:56.958Z,56.08
2023-03-27T20:14:23.782Z,56.24
2023-03-27T20:16:51.087Z,56.88
2023-03-27T20:19:18.610Z,57.23
2023-03-27T20:21:46.766Z,57.16
2023-03-27T20:24:17.342Z,57.66
2023-03-27T20:26:52.532Z,57.51
2023-03-27T20:29:23.525Z,57.71
2023-03-27T20:31:50.463Z,58.09
2023-03-27T20:34:19.337Z,58.09
2023-03-27T20:36:46.460Z,58.67
2023-03-27T20:39:27.852Z,59.62
2023-03-27T20:41:58.887Z,59.89
2023-03-27T20:44:36.073Z,60.18
2023-03-27T20:47:11.013Z,60.48
2023-03-27T20:49:42.971Z,60.71
2023-03-27T20:52:11.357Z,61.47
2023-03-27T20:54:38.028Z,61.95
2023-03-27T20:57:04.742Z,62.12
2023-03-27T20:59:31.523Z,62.52
2023-03-27T21:01:59.342Z,62.63
2023-03-27T21:04:28.253Z,62.73
2023-03-27T21:06:55.359Z,62.91
2023-03-27T21:09:22.754Z,62.79
2023-03-27T21:11:53.554Z,62.57
2023-03-27T21:14:20.267Z,62.98
2023-03-27T21:16:46.995Z,62.33
2023-03-27T21:19:13.593Z,62.62
2023-03-27T21:21:41.393Z,62.38
2023-03-27T21:24:08.067Z,61.94
2023-03-27T21:26:34.733Z,62.26
2023-03-27T21:29:01.389Z,61.66
2023-03-27T21:31:28.141Z,62.08
2023-03-27T21:33:54.774Z,61.65
2023-03-27T21:36:21.833Z,61.53
2023-03-27T21:38:48.504Z,61.58
2023-03-27T21:41:16.224Z,61.79
2023-03-27T21:43:42.866Z,61.68
2023-03-27T21:46:09.881Z,61.58
2023-03-27T21:48:36.567Z,61.77
2023-03-27T21:51:05.501Z,61.42
2023-03-27T21:53:32.202Z,61.40
2023-03-27T21:55:59.006Z,60.72
2023-03-27T21:58:26.107Z,61.13
2023-03-27T22:00:52.931Z,60.75
2023-03-27T22:03:19.514Z,61.34
2023-03-27T22:06:01.141Z,61.50
2023-03-27T22:08:33.120Z,61.46
2023-03-27T22:11:00.402Z,61.35
2023-03-27T22:13:26.970Z,62.04
2023-03-27T22:15:53.799Z,61.66
2023-03-27T22:18:20.561Z,62.29
2023-03-27T22:20:47.141Z,62.44
2023-03-27T22:23:13.793Z,62.80
2023-03-27T22:25:40.528Z,62.98
2023-03-27T22:28:07.168Z,63.19
2023-03-27T22:30:33.893Z,63.16
2023-03-27T22:33:00.491Z,63.29
2023-03-27T22:35:27.259Z,63.45
2023-03-27T22:37:53.900Z,63.96
2023-03-27T22:40:20.490Z,63.88
2023-03-27T22:42:47.108Z,64.10
2023-03-27T22:45:13.767Z,64.70
2023-03-27T22:47:40.726Z,64.75
2023-03-27T22:50:07.655Z,64.76
2023-03-27T22:52:34.483Z,64.91
2023-03-27T22:55:01.137Z,65.51
2023-03-27T22:57:27.848Z,65.41
2023-03-27T22:59:54.474Z,65.33
2023-03-27T23:02:21.573Z,65.65
2023-03-27T23:04:48.526Z,65.82
2023-03-27T23:07:15.422Z,65.71
2023-03-27T23:09:41.984Z,65.51
2023-03-27T23:12:08.693Z,65.62
2023-03-27T23:14:35.361Z,65.91
2023-03-27T23:17:03.262Z,65.85
2023-03-27T23:19:29.995Z,65.78
2023-03-27T23:21:56.620Z,65.52
2023-03-27T23:24:23.202Z,66.01
2023-03-27T23:26:49.953Z,65.77
2023-03-27T23:29:16.523Z,65.85
2023-03-27T23:31:43.166Z,65.87
2023-03-27T23:34:09.846Z,65.36
2023-03-27T23:36:36.645Z,65.27
2023-03-27T23:39:03.493Z,65.99
2023-03-27T23:41:30.123Z,65.70
2023-03-27T23:43:56.691Z,65.25
2023-03-27T23:46:23.341Z,64.58
2023-03-27T23:48:50.529Z,64.53
2023-03-27T23:51:17.441Z,64.91
2023-03-27T23:53:44.363Z,64.38
2023-03-27T23:56:11.452Z,63.95
2023-03-27T23:58:38.346Z,63.96
